Time;durP1;ratioP1;P1;durP2;ratioP2;P2;SDS_P1;SDS_P2;PMS_P1;PMS_P2;Temp;Humidity;BMP_temperature;BMP_pressure;BME280_temperature;BME280_humidity;BME280_pressure;Samples;Min_cycle;Max_cycle;Signal;HPM_P1;HPM_P2
2023/04/24 00:00:31;;;;;;;0.00;0.00;;;10.60;99.90;;;;;;4964841;28;20105;-72
2023/04/24 00:02:57;;;;;;;0.10;0.10;;;10.60;99.90;;;;;;4962606;28;20038;-74
2023/04/24 00:05:24;;;;;;;0.10;0.10;;;9.00;99.90;;;;;;4962956;28;20031;-72
2023/04/24 00:07:52;;;;;;;0.10;0.10;;;10.70;99.90;;;;;;4955396;28;20406;-72
2023/04/24 00:10:18;;;;;;;0.03;0.03;;;10.70;99.90;;;;;;4962947;28;20025;-73
2023/04/24 00:12:44;;;;;;;7.68;7.00;;;10.70;99.90;;;;;;4965372;28;20031;-73
2023/04/24 00:15:10;;;;;;;0.10;0.10;;;10.70;99.90;;;;;;4962997;28;20676;-73
2023/04/24 00:17:36;;;;;;;0.00;0.00;;;10.70;99.90;;;;;;4962874;28;20027;-73
2023/04/24 00:20:04;;;;;;;0.00;0.00;;;10.60;99.90;;;;;;4963396;28;20051;-73
2023/04/24 00:22:31;;;;;;;0.00;0.00;;;10.60;99.90;;;;;;4963125;28;20073;-73
2023/04/24 00:24:57;;;;;;;17.08;9.30;;;10.60;99.90;;;;;;4962768;28;20027;-71
2023/04/24 00:27:23;;;;;;;0.00;0.00;;;10.60;99.90;;;;;;4965656;28;20030;-74
2023/04/24 00:29:49;;;;;;;0.00;0.00;;;10.60;99.90;;;;;;4965585;28;20113;-74
2023/04/24 00:32:15;;;;;;;0.00;0.00;;;10.60;99.90;;;;;;4967342;28;20118;-73
2023/04/24 00:34:41;;;;;;;0.30;0.30;;;10.50;99.90;;;;;;4971310;28;20025;-80
2023/04/24 00:37:07;;;;;;;0.08;0.08;;;10.50;99.90;;;;;;4971057;28;20034;-74
2023/04/24 00:39:33;;;;;;;0.00;0.00;;;10.50;99.90;;;;;;4969513;28;20031;-74
2023/04/24 00:41:59;;;;;;;0.00;0.00;;;10.50;99.90;;;;;;4968807;28;20034;-76
2023/04/24 00:44:25;;;;;;;1.52;1.45;;;10.50;99.90;;;;;;4982640;28;20031;-73
2023/04/24 00:46:54;;;;;;;0.10;0.10;;;;;;;;;;4970077;28;20027;-76
2023/04/24 00:49:21;;;;;;;0.00;0.00;;;10.40;99.90;;;;;;4983086;28;20094;-73
2023/04/24 00:51:49;;;;;;;0.00;0.00;;;10.60;99.90;;;;;;4966957;28;20050;-74
2023/04/24 00:54:15;;;;;;;3.17;2.97;;;10.60;99.90;;;;;;4961091;28;20035;-74
2023/04/24 00:56:42;;;;;;;0.00;0.00;;;10.60;99.90;;;;;;4967717;28;20077;-75
2023/04/24 00:59:08;;;;;;;0.00;0.00;;;10.60;99.90;;;;;;4968498;28;20050;-73
2023/04/24 01:01:35;;;;;;;0.00;0.00;;;10.60;99.90;;;;;;4968556;28;20106;-76
2023/04/24 01:04:01;;;;;;;0.00;0.00;;;10.60;99.90;;;;;;4977821;28;20034;-74
2023/04/24 01:06:28;;;;;;;0.03;0.03;;;10.60;99.90;;;;;;4973923;28;20106;-76
2023/04/24 01:08:55;;;;;;;0.00;0.00;;;10.60;99.90;;;;;;4976119;28;20023;-74
2023/04/24 01:11:21;;;;;;;0.10;0.10;;;10.60;99.90;;;;;;4973285;28;20049;-74
2023/04/24 01:13:48;;;;;;;0.00;0.00;;;10.60;99.90;;;;;;4974915;28;20070;-75
2023/04/24 01:16:17;;;;;;;0.30;0.30;;;10.60;99.90;;;;;;4971888;28;20050;-76
2023/04/24 01:18:43;;;;;;;0.10;0.10;;;10.60;99.90;;;;;;4971307;28;20023;-78
2023/04/24 01:21:12;;;;;;;0.00;0.00;;;10.60;99.90;;;;;;4971084;28;20047;-75
2023/04/24 01:23:38;;;;;;;0.08;0.08;;;10.60;99.90;;;;;;4969175;28;20014;-74
2023/04/24 01:26:04;;;;;;;0.10;0.10;;;10.50;99.90;;;;;;4964428;28;20081;-76
2023/04/24 01:28:30;;;;;;;0.00;0.00;;;9.70;99.90;;;;;;4966398;28;20019;-75
2023/04/24 01:30:56;;;;;;;1.50;1.45;;;10.50;99.90;;;;;;4966136;28;20015;-73
2023/04/24 01:33:22;;;;;;;0.00;0.00;;;10.50;99.90;;;;;;4971204;28;20257;-74
2023/04/24 01:35:49;;;;;;;0.00;0.00;;;10.40;99.90;;;;;;4971628;28;20023;-78
2023/04/24 01:38:15;;;;;;;0.10;0.10;;;10.50;99.90;;;;;;4973766;28;20041;-75
2023/04/24 01:40:40;;;;;;;0.10;0.10;;;10.50;99.90;;;;;;4976193;28;20094;-74
2023/04/24 01:43:07;;;;;;;0.00;0.00;;;10.50;99.90;;;;;;4975603;28;20026;-75
2023/04/24 01:45:33;;;;;;;0.00;0.00;;;10.50;99.90;;;;;;4974325;28;20027;-76
2023/04/24 01:48:00;;;;;;;0.00;0.00;;;10.50;99.90;;;;;;4967136;28;20034;-75
2023/04/24 01:50:25;;;;;;;0.00;0.00;;;10.50;99.90;;;;;;4975520;28;20110;-77
2023/04/24 01:52:51;;;;;;;0.10;0.10;;;10.50;99.90;;;;;;4972368;28;20070;-76
2023/04/24 01:55:17;;;;;;;0.00;0.00;;;10.50;99.90;;;;;;4975554;28;20015;-74
2023/04/24 01:57:43;;;;;;;0.00;0.00;;;10.60;99.90;;;;;;4965950;28;20034;-73
2023/04/24 02:00:11;;;;;;;0.00;0.00;;;10.60;99.90;;;;;;4968970;28;20019;-74
2023/04/24 02:02:38;;;;;;;0.00;0.00;;;10.50;99.90;;;;;;4967428;28;20462;-73
2023/04/24 02:05:07;;;;;;;0.00;0.00;;;10.50;99.90;;;;;;4969140;28;20022;-74
2023/04/24 02:07:32;;;;;;;1.58;1.55;;;10.50;99.90;;;;;;4972090;28;20026;-75
2023/04/24 02:09:58;;;;;;;3.53;3.40;;;10.50;99.90;;;;;;4975672;28;20046;-74
2023/04/24 02:12:24;;;;;;;0.05;0.05;;;10.40;99.90;;;;;;4977236;28;20027;-75
2023/04/24 02:14:50;;;;;;;0.00;0.00;;;10.40;99.90;;;;;;4970150;28;20674;-73
2023/04/24 02:17:18;;;;;;;0.00;0.00;;;10.40;99.90;;;;;;4958023;28;20134;-73
2023/04/24 02:19:45;;;;;;;0.10;0.10;;;10.40;99.90;;;;;;4948023;28;20694;-73
2023/04/24 02:22:11;;;;;;;0.00;0.00;;;10.40;99.90;;;;;;4964171;28;20014;-72
2023/04/24 02:24:37;;;;;;;0.00;0.00;;;10.40;99.90;;;;;;4969109;28;20030;-74
2023/04/24 02:27:03;;;;;;;0.10;0.10;;;10.40;99.90;;;;;;4970929;28;20063;-75
2023/04/24 02:29:30;;;;;;;0.05;0.05;;;10.40;99.90;;;;;;4969681;28;20022;-78
2023/04/24 02:31:56;;;;;;;0.00;0.00;;;10.40;99.90;;;;;;4970525;28;20023;-76
2023/04/24 02:34:22;;;;;;;0.00;0.00;;;10.50;99.90;;;;;;4968459;28;20026;-75
2023/04/24 02:36:48;;;;;;;0.00;0.00;;;10.50;99.90;;;;;;4968323;28;20097;-74
2023/04/24 02:39:16;;;;;;;0.10;0.10;;;10.50;99.90;;;;;;4965816;28;20022;-74
2023/04/24 02:41:45;;;;;;;4.18;3.97;;;10.50;99.90;;;;;;4971105;28;20026;-73
2023/04/24 02:44:11;;;;;;;0.00;0.00;;;10.50;99.90;;;;;;4972425;28;20085;-73
2023/04/24 02:46:37;;;;;;;0.10;0.10;;;10.60;99.90;;;;;;4969458;28;20035;-74
2023/04/24 02:49:02;;;;;;;0.00;0.00;;;10.60;99.90;;;;;;4966323;28;20019;-77
2023/04/24 02:51:29;;;;;;;0.05;0.05;;;10.60;99.90;;;;;;4959454;28;20567;-72
2023/04/24 02:53:55;;;;;;;0.10;0.10;;;10.70;99.90;;;;;;4961948;28;20484;-73
2023/04/24 02:56:20;;;;;;;0.10;0.10;;;10.70;99.90;;;;;;4962513;28;20027;-74
2023/04/24 02:58:46;;;;;;;0.10;0.10;;;11.00;99.90;;;;;;4963859;28;20022;-74
2023/04/24 03:01:12;;;;;;;0.05;0.05;;;11.00;99.90;;;;;;4963351;28;20713;-74
2023/04/24 03:03:39;;;;;;;0.08;0.08;;;11.10;99.90;;;;;;4962290;28;20054;-73
2023/04/24 03:06:05;;;;;;;0.10;0.10;;;11.20;99.90;;;;;;4962185;28;20660;-74
2023/04/24 03:08:32;;;;;;;0.03;0.03;;;11.20;99.90;;;;;;4961741;28;20027;-73
2023/04/24 03:10:58;;;;;;;0.10;0.10;;;11.20;99.90;;;;;;4960840;28;20701;-73
2023/04/24 03:13:24;;;;;;;0.10;0.10;;;11.10;99.90;;;;;;4962852;28;20027;-74
2023/04/24 03:15:51;;;;;;;0.10;0.10;;;11.10;99.90;;;;;;4963914;28;20611;-75
2023/04/24 03:18:16;;;;;;;0.10;0.10;;;11.20;99.90;;;;;;4961720;28;20019;-73
2023/04/24 03:20:42;;;;;;;0.05;0.05;;;11.40;99.90;;;;;;4961666;28;20039;-73
2023/04/24 03:23:08;;;;;;;0.10;0.10;;;11.50;99.90;;;;;;4960447;28;20094;-73
2023/04/24 03:25:34;;;;;;;0.00;0.00;;;11.60;99.90;;;;;;4960393;28;20129;-73
2023/04/24 03:28:00;;;;;;;0.10;0.10;;;11.60;99.90;;;;;;4956083;28;20030;-74
2023/04/24 03:30:25;;;;;;;0.10;0.10;;;11.60;99.90;;;;;;4963881;28;20671;-76
2023/04/24 03:32:52;;;;;;;0.10;0.10;;;11.60;99.90;;;;;;4965408;28;20596;-74
2023/04/24 03:35:18;;;;;;;0.10;0.10;;;11.60;99.90;;;;;;4967184;28;20027;-73
2023/04/24 03:37:44;;;;;;;0.10;0.10;;;11.50;99.90;;;;;;4963573;28;20330;-75
2023/04/24 03:40:10;;;;;;;0.10;0.10;;;11.40;99.90;;;;;;4962475;28;20027;-73
2023/04/24 03:42:35;;;;;;;0.08;0.08;;;11.30;99.90;;;;;;4962594;28;20043;-72
2023/04/24 03:45:01;;;;;;;0.30;0.30;;;11.40;99.90;;;;;;4962680;28;20057;-73
2023/04/24 03:47:27;;;;;;;2.08;1.25;;;11.30;99.90;;;;;;4962756;28;20664;-74
2023/04/24 03:49:54;;;;;;;0.10;0.10;;;11.30;99.90;;;;;;4968336;28;20035;-79
2023/04/24 03:52:19;;;;;;;0.00;0.00;;;11.40;99.90;;;;;;4967447;28;20034;-73
2023/04/24 03:54:45;;;;;;;0.65;0.65;;;11.30;99.90;;;;;;4964903;28;20031;-73
2023/04/24 03:57:11;;;;;;;0.30;0.30;;;11.30;99.90;;;;;;4965027;28;20502;-73
2023/04/24 03:59:38;;;;;;;0.10;0.10;;;11.30;99.90;;;;;;4963954;28;20698;-74
2023/04/24 04:02:03;;;;;;;0.10;0.10;;;11.20;99.90;;;;;;4963325;28;20514;-76
2023/04/24 04:04:29;;;;;;;0.25;0.25;;;11.20;99.90;;;;;;4965110;28;20038;-73
2023/04/24 04:06:56;;;;;;;0.10;0.10;;;11.20;99.90;;;;;;4968248;28;20026;-74
2023/04/24 04:09:21;;;;;;;0.08;0.08;;;11.20;99.90;;;;;;4970479;28;20177;-76
2023/04/24 04:11:47;;;;;;;0.10;0.10;;;11.00;99.90;;;;;;4968684;28;20126;-73
2023/04/24 04:14:13;;;;;;;0.10;0.10;;;11.10;99.90;;;;;;4971552;28;20082;-72
2023/04/24 04:16:39;;;;;;;3.25;3.10;;;11.00;99.90;;;;;;4970451;28;20082;-73
2023/04/24 04:19:05;;;;;;;0.10;0.10;;;11.10;99.90;;;;;;4968845;28;20034;-72
2023/04/24 04:21:31;;;;;;;0.00;0.00;;;11.10;99.90;;;;;;4967241;28;20041;-74
2023/04/24 04:23:57;;;;;;;0.10;0.10;;;11.10;99.90;;;;;;4964526;28;20026;-74
2023/04/24 04:26:25;;;;;;;0.10;0.10;;;11.10;99.90;;;;;;4966960;28;20027;-74
2023/04/24 04:28:51;;;;;;;0.10;0.10;;;10.90;99.90;;;;;;4965340;28;20023;-75
2023/04/24 04:31:17;;;;;;;0.00;0.00;;;10.80;99.90;;;;;;4974240;28;20181;-73
2023/04/24 04:33:43;;;;;;;0.00;0.00;;;10.80;99.90;;;;;;4964081;28;20035;-75
2023/04/24 04:36:09;;;;;;;0.00;0.00;;;10.80;99.90;;;;;;4971550;28;20023;-76
2023/04/24 04:38:34;;;;;;;0.00;0.00;;;10.90;99.90;;;;;;4967829;28;20030;-73
2023/04/24 04:41:00;;;;;;;0.10;0.10;;;10.80;99.90;;;;;;4970005;28;20034;-74
2023/04/24 04:43:26;;;;;;;0.00;0.00;;;10.80;99.90;;;;;;4972955;28;20056;-80
2023/04/24 04:45:54;;;;;;;0.10;0.10;;;10.80;99.90;;;;;;4971871;28;20417;-75
2023/04/24 04:48:20;;;;;;;2.10;2.00;;;10.80;99.90;;;;;;4966949;28;20736;-73
2023/04/24 04:50:45;;;;;;;0.00;0.00;;;10.90;99.90;;;;;;4964796;28;20042;-73
2023/04/24 04:53:11;;;;;;;0.10;0.10;;;11.00;99.90;;;;;;4959384;28;20117;-74
2023/04/24 04:55:37;;;;;;;0.08;0.08;;;11.00;99.90;;;;;;4964069;28;20050;-74
2023/04/24 04:58:06;;;;;;;3.60;3.40;;;11.10;99.90;;;;;;4963296;28;20082;-74
2023/04/24 05:00:35;;;;;;;0.20;0.20;;;10.90;99.90;;;;;;4962196;28;20592;-72
2023/04/24 05:03:01;;;;;;;0.15;0.15;;;11.10;99.90;;;;;;4956733;28;20137;-73
2023/04/24 05:05:27;;;;;;;0.10;0.10;;;11.10;99.90;;;;;;4964400;28;20021;-73
2023/04/24 05:07:53;;;;;;;0.10;0.10;;;11.10;99.90;;;;;;4964152;28;20026;-73
2023/04/24 05:10:18;;;;;;;0.10;0.10;;;11.10;99.90;;;;;;4964833;28;20687;-75
2023/04/24 05:12:44;;;;;;;0.05;0.05;;;11.00;99.90;;;;;;4959373;28;20031;-74
2023/04/24 05:15:10;;;;;;;0.10;0.10;;;11.00;99.90;;;;;;4965141;28;20041;-74
2023/04/24 05:17:36;;;;;;;0.10;0.10;;;11.00;99.90;;;;;;4963342;28;20119;-74
2023/04/24 05:20:05;;;;;;;0.03;0.03;;;11.00;99.90;;;;;;4963027;28;20162;-73
2023/04/24 05:22:31;;;;;;;0.10;0.10;;;9.90;99.90;;;;;;4964562;28;20094;-74
2023/04/24 05:24:57;;;;;;;0.10;0.10;;;11.00;99.90;;;;;;4962291;28;20019;-72
2023/04/24 05:27:23;;;;;;;0.80;0.80;;;11.00;99.90;;;;;;4960300;28;20031;-73
2023/04/24 05:29:49;;;;;;;0.05;0.05;;;11.00;99.90;;;;;;4962085;28;20018;-73
2023/04/24 05:32:14;;;;;;;0.10;0.10;;;11.00;99.90;;;;;;4961961;28;20034;-74
2023/04/24 05:34:40;;;;;;;0.10;0.10;;;11.00;99.90;;;;;;4962167;28;20015;-73
2023/04/24 05:37:08;;;;;;;0.10;0.10;;;11.00;99.90;;;;;;4965248;28;20030;-75
2023/04/24 05:39:35;;;;;;;0.10;0.10;;;11.00;99.90;;;;;;4967087;28;20027;-77
2023/04/24 05:42:01;;;;;;;0.10;0.10;;;11.10;99.90;;;;;;4966850;28;20046;-75
2023/04/24 05:44:27;;;;;;;0.00;0.00;;;11.20;99.90;;;;;;4965253;28;20030;-75
2023/04/24 05:46:55;;;;;;;0.00;0.00;;;11.30;99.90;;;;;;4969217;28;20026;-74
2023/04/24 05:49:20;;;;;;;2.75;2.65;;;11.50;99.90;;;;;;4964908;28;20107;-73
2023/04/24 05:51:46;;;;;;;0.10;0.10;;;11.60;99.90;;;;;;4961836;28;20993;-73
2023/04/24 05:54:12;;;;;;;0.00;0.00;;;11.60;99.90;;;;;;4956676;28;20019;-74
2023/04/24 05:56:38;;;;;;;0.10;0.10;;;11.70;99.90;;;;;;4958653;28;20045;-74
2023/04/24 05:59:04;;;;;;;0.10;0.10;;;11.70;99.90;;;;;;4960139;28;20710;-83
2023/04/24 06:01:31;;;;;;;5.07;4.88;;;11.80;99.90;;;;;;4960154;28;20031;-74
2023/04/24 06:03:57;;;;;;;0.10;0.10;;;11.80;99.90;;;;;;4960295;28;20026;-77
2023/04/24 06:06:24;;;;;;;0.10;0.10;;;11.90;99.90;;;;;;4960239;28;20057;-75
2023/04/24 06:08:49;;;;;;;2.03;1.92;;;12.00;99.90;;;;;;4960258;28;20027;-76
2023/04/24 06:11:15;;;;;;;0.10;0.10;;;12.20;99.90;;;;;;4959768;28;20031;-79
2023/04/24 06:13:41;;;;;;;0.05;0.05;;;12.30;99.90;;;;;;4960128;28;20022;-79
2023/04/24 06:16:07;;;;;;;0.57;0.57;;;12.50;99.90;;;;;;4959746;28;20037;-77
2023/04/24 06:18:33;;;;;;;0.45;0.45;;;12.60;99.90;;;;;;4959500;28;20033;-76
2023/04/24 06:20:59;;;;;;;0.10;0.10;;;12.80;99.90;;;;;;4959349;28;20077;-77
2023/04/24 06:23:25;;;;;;;0.10;0.10;;;13.10;99.90;;;;;;4955994;28;20058;-73
2023/04/24 06:25:51;;;;;;;0.10;0.10;;;13.30;99.90;;;;;;4959097;28;20037;-74
2023/04/24 06:28:17;;;;;;;0.10;0.10;;;13.50;99.90;;;;;;4959112;28;20023;-74
2023/04/24 06:30:43;;;;;;;0.10;0.10;;;13.60;99.90;;;;;;4958439;28;20050;-73
2023/04/24 06:33:09;;;;;;;0.90;0.85;;;12.50;99.90;;;;;;4958882;28;20536;-74
2023/04/24 06:35:37;;;;;;;0.10;0.10;;;13.90;99.90;;;;;;4958967;28;20031;-73
2023/04/24 06:38:03;;;;;;;0.10;0.10;;;14.00;99.90;;;;;;4952946;28;20030;-76
2023/04/24 06:40:29;;;;;;;0.10;0.10;;;14.10;99.90;;;;;;4959367;28;20027;-74
2023/04/24 06:42:55;;;;;;;0.10;0.10;;;14.10;99.90;;;;;;4951806;28;20092;-78
2023/04/24 06:45:21;;;;;;;0.10;0.10;;;14.10;99.90;;;;;;4958918;28;20481;-73
2023/04/24 06:47:47;;;;;;;0.10;0.10;;;14.10;99.90;;;;;;4958740;28;20039;-74
2023/04/24 06:50:13;;;;;;;0.10;0.10;;;14.00;99.90;;;;;;4954139;28;20023;-73
2023/04/24 06:52:39;;;;;;;0.10;0.10;;;14.00;99.90;;;;;;4959232;28;20109;-76
2023/04/24 06:55:05;;;;;;;0.10;0.10;;;14.10;99.90;;;;;;4952996;28;20174;-73
2023/04/24 06:57:31;;;;;;;6.38;6.03;;;14.00;99.90;;;;;;4958206;28;20026;-73
2023/04/24 06:59:57;;;;;;;0.60;0.60;;;13.90;99.90;;;;;;4958622;28;20029;-73
2023/04/24 07:02:23;;;;;;;2.25;1.60;;;13.90;99.90;;;;;;4958480;28;20027;-73
2023/04/24 07:04:48;;;;;;;0.20;0.20;;;13.70;99.90;;;;;;4962427;28;20513;-79
2023/04/24 07:07:15;;;;;;;0.10;0.10;;;13.70;99.90;;;;;;4962505;28;20110;-76
2023/04/24 07:09:42;;;;;;;0.20;0.20;;;13.60;99.90;;;;;;4962064;28;20110;-72
2023/04/24 07:12:10;;;;;;;0.20;0.20;;;13.70;99.90;;;;;;4961877;28;20541;-78
2023/04/24 07:14:39;;;;;;;0.00;0.00;;;13.70;99.90;;;;;;4962192;28;20378;-74
2023/04/24 07:17:06;;;;;;;0.20;0.20;;;13.80;99.90;;;;;;4956411;28;20030;-74
2023/04/24 07:19:33;;;;;;;0.10;0.10;;;13.80;99.90;;;;;;4961975;28;20038;-76
2023/04/24 07:21:59;;;;;;;3.80;3.60;;;13.90;99.90;;;;;;4962001;28;20114;-74
2023/04/24 07:24:25;;;;;;;0.10;0.10;;;14.10;99.90;;;;;;4962542;28;20102;-73
2023/04/24 07:26:52;;;;;;;0.10;0.10;;;14.20;99.90;;;;;;4962242;28;20023;-76
2023/04/24 07:29:19;;;;;;;0.32;0.32;;;14.40;99.90;;;;;;4962502;28;20213;-73
2023/04/24 07:31:45;;;;;;;0.10;0.10;;;14.40;99.90;;;;;;4961949;28;20023;-72
2023/04/24 07:34:11;;;;;;;0.30;0.30;;;14.30;99.90;;;;;;4962507;28;20123;-71
2023/04/24 07:36:38;;;;;;;0.10;0.10;;;14.40;99.90;;;;;;4961890;28;20019;-72
2023/04/24 07:39:04;;;;;;;0.10;0.10;;;14.50;99.90;;;;;;4961987;28;20022;-72
2023/04/24 07:41:30;;;;;;;0.10;0.10;;;14.60;99.90;;;;;;4962008;28;20023;-71
2023/04/24 07:43:56;;;;;;;1.10;1.05;;;14.60;99.90;;;;;;4962315;28;20030;-73
2023/04/24 07:46:23;;;;;;;0.10;0.10;;;14.70;99.90;;;;;;4961768;28;20027;-72
2023/04/24 07:48:49;;;;;;;0.10;0.10;;;14.80;99.90;;;;;;4961754;28;20221;-79
2023/04/24 07:51:15;;;;;;;0.10;0.10;;;14.80;99.90;;;;;;4961356;28;20284;-72
2023/04/24 07:53:41;;;;;;;0.20;0.20;;;15.00;99.90;;;;;;4962148;28;20023;-71
2023/04/24 07:56:07;;;;;;;0.10;0.10;;;15.10;99.90;;;;;;4961689;28;20680;-72
2023/04/24 07:58:33;;;;;;;0.57;0.57;;;15.10;99.90;;;;;;4962893;28;20030;-74
2023/04/24 08:00:59;;;;;;;0.20;0.20;;;15.20;99.90;;;;;;4961584;28;20086;-72
2023/04/24 08:03:25;;;;;;;0.10;0.10;;;15.10;99.90;;;;;;4962042;28;20642;-72
2023/04/24 08:05:51;;;;;;;0.20;0.20;;;15.20;99.90;;;;;;4962224;28;20019;-80
2023/04/24 08:08:17;;;;;;;0.10;0.10;;;15.20;99.90;;;;;;4962220;28;20051;-77
2023/04/24 08:10:42;;;;;;;0.10;0.10;;;15.20;99.90;;;;;;4961996;28;20031;-81
2023/04/24 08:13:08;;;;;;;0.10;0.10;;;15.30;99.90;;;;;;4962397;28;20579;-72
2023/04/24 08:15:34;;;;;;;0.10;0.10;;;15.40;99.90;;;;;;4961105;28;20030;-72
2023/04/24 08:18:00;;;;;;;0.10;0.10;;;15.30;99.90;;;;;;4955191;28;20031;-76
2023/04/24 08:20:26;;;;;;;0.10;0.10;;;16.60;99.90;;;;;;4961129;28;20054;-72
2023/04/24 08:22:52;;;;;;;0.10;0.10;;;15.40;99.90;;;;;;4961629;28;20027;-72
2023/04/24 08:25:19;;;;;;;0.10;0.10;;;15.50;99.90;;;;;;4961748;28;20080;-71
2023/04/24 08:27:44;;;;;;;0.10;0.10;;;15.50;99.90;;;;;;4961208;28;20124;-77
2023/04/24 08:30:10;;;;;;;0.10;0.10;;;15.70;99.90;;;;;;4960934;28;20750;-74
2023/04/24 08:32:37;;;;;;;0.10;0.10;;;15.70;99.90;;;;;;4960906;28;20746;-76
2023/04/24 08:35:03;;;;;;;0.10;0.10;;;15.70;99.90;;;;;;4961239;28;20047;-73
2023/04/24 08:37:29;;;;;;;0.10;0.10;;;15.70;99.90;;;;;;4958467;28;20607;-74
2023/04/24 08:39:54;;;;;;;0.10;0.10;;;15.80;99.90;;;;;;4961161;28;20023;-72
2023/04/24 08:42:21;;;;;;;0.10;0.10;;;15.50;99.90;;;;;;4961263;28;20046;-72
2023/04/24 08:44:49;;;;;;;0.20;0.20;;;15.60;99.90;;;;;;4960594;28;20023;-72
2023/04/24 08:47:15;;;;;;;0.10;0.10;;;15.70;99.90;;;;;;4960493;28;20030;-74
2023/04/24 08:49:42;;;;;;;0.10;0.10;;;15.90;99.90;;;;;;4960622;28;20498;-72
2023/04/24 08:52:08;;;;;;;1.08;1.08;;;16.10;99.90;;;;;;4960855;28;20030;-73
2023/04/24 08:54:35;;;;;;;0.13;0.13;;;16.30;99.90;;;;;;4943305;28;20630;-76
2023/04/24 08:57:03;;;;;;;0.10;0.10;;;16.50;99.90;;;;;;4960410;28;20656;-74
2023/04/24 08:59:30;;;;;;;0.10;0.10;;;16.60;99.90;;;;;;4960530;28;20037;-72
2023/04/24 09:01:57;;;;;;;0.10;0.10;;;16.70;99.90;;;;;;4960434;28;20085;-80
2023/04/24 09:04:24;;;;;;;0.10;0.10;;;16.60;99.90;;;;;;4959664;28;20063;-72
2023/04/24 09:06:58;;;;;;;0.10;0.10;;;16.40;99.90;;;;;;4959629;28;20015;-70
2023/04/24 09:09:24;;;;;;;0.10;0.10;;;16.60;99.70;;;;;;4958757;28;20035;-73
2023/04/24 09:11:54;;;;;;;0.43;0.43;;;16.60;99.40;;;;;;4959861;28;20104;-72
2023/04/24 09:14:20;;;;;;;0.10;0.10;;;16.50;99.50;;;;;;4943201;28;20571;-72
2023/04/24 09:16:47;;;;;;;0.10;0.10;;;16.60;99.90;;;;;;4959815;28;20019;-72
2023/04/24 09:19:13;;;;;;;0.10;0.10;;;16.70;98.20;;;;;;4959914;28;20035;-70
2023/04/24 09:21:40;;;;;;;0.10;0.10;;;16.80;97.80;;;;;;4960045;28;20035;-76
2023/04/24 09:24:08;;;;;;;0.10;0.10;;;17.00;97.70;;;;;;4959832;28;20108;-71
2023/04/24 09:26:37;;;;;;;0.10;0.10;;;17.00;98.00;;;;;;4958706;28;20034;-71
2023/04/24 09:29:04;;;;;;;0.20;0.20;;;17.00;97.30;;;;;;4959968;28;20022;-70
2023/04/24 09:31:30;;;;;;;0.10;0.10;;;17.10;97.40;;;;;;4959692;28;20019;-72
2023/04/24 09:34:05;;;;;;;0.10;0.10;;;16.50;98.00;;;;;;4960213;28;20744;-79
2023/04/24 09:36:34;;;;;;;0.13;0.13;;;17.20;96.60;;;;;;4959982;28;20034;-74
2023/04/24 09:39:15;;;;;;;0.10;0.10;;;17.20;96.40;;;;;;4942621;28;20015;-70
2023/04/24 09:41:50;;;;;;;0.10;0.10;;;17.20;96.70;;;;;;4959802;28;20023;-78
2023/04/24 09:44:22;;;;;;;0.10;0.10;;;17.20;97.30;;;;;;4959892;28;20019;-74
2023/04/24 09:46:58;;;;;;;0.10;0.10;;;17.10;96.70;;;;;;4959572;28;20037;-72
2023/04/24 09:49:35;;;;;;;0.80;0.80;;;16.80;97.70;;;;;;5094555;27;20429;-70
2023/04/24 09:52:11;;;;;;;0.10;0.10;;;16.70;98.40;;;;;;5093818;28;20012;-70
2023/04/24 09:54:37;;;;;;;0.13;0.13;;;16.60;98.10;;;;;;5095070;28;20422;-72
2023/04/24 09:57:03;;;;;;;0.10;0.10;;;16.60;98.10;;;;;;5093854;28;20085;-71
2023/04/24 09:59:29;;;;;;;0.20;0.20;;;16.70;98.30;;;;;;5094824;28;20020;-72
2023/04/24 10:01:56;;;;;;;0.43;0.43;;;16.50;97.80;;;;;;5094531;28;20027;-75
2023/04/24 10:04:24;;;;;;;0.20;0.20;;;16.50;98.20;;;;;;5094599;28;20021;-71
2023/04/24 10:06:52;;;;;;;0.10;0.10;;;16.60;98.00;;;;;;5094730;28;20027;-78
2023/04/24 10:09:19;;;;;;;0.20;0.20;;;16.60;97.50;;;;;;5094910;28;20020;-73
2023/04/24 10:11:47;;;;;;;0.63;0.63;;;16.60;97.90;;;;;;5094494;28;20277;-74
2023/04/24 10:14:20;;;;;;;0.20;0.20;;;16.70;98.40;;;;;;5094658;28;20109;-72
2023/04/24 10:16:46;;;;;;;0.10;0.10;;;16.70;98.20;;;;;;5094272;28;20016;-68
2023/04/24 10:19:13;;;;;;;0.10;0.10;;;16.70;98.00;;;;;;5094441;28;20120;-70
2023/04/24 10:21:42;;;;;;;1.13;1.08;;;16.70;98.20;;;;;;5094566;28;20020;-70
2023/04/24 10:24:08;;;;;;;0.10;0.10;;;16.80;98.40;;;;;;5094516;28;20020;-74
2023/04/24 10:26:35;;;;;;;0.20;0.20;;;16.80;98.20;;;;;;5092992;28;20023;-71
2023/04/24 10:29:01;;;;;;;0.10;0.10;;;16.90;97.80;;;;;;5094331;28;20055;-76
2023/04/24 10:31:30;;;;;;;0.10;0.10;;;16.90;97.50;;;;;;5094040;28;20047;-72
2023/04/24 10:33:57;;;;;;;0.10;0.10;;;17.00;97.40;;;;;;5094260;28;20205;-71
2023/04/24 10:36:26;;;;;;;0.10;0.10;;;17.00;97.90;;;;;;5094351;28;20050;-70
2023/04/24 10:38:54;;;;;;;0.15;0.15;;;17.00;97.30;;;;;;5094118;28;20715;-71
2023/04/24 10:41:23;;;;;;;0.10;0.10;;;18.70;97.50;;;;;;5094379;28;20185;-70
2023/04/24 10:44:03;;;;;;;0.10;0.10;;;17.20;97.00;;;;;;5094483;28;20040;-71
2023/04/24 10:46:30;;;;;;;0.10;0.10;;;17.00;97.00;;;;;;5094101;28;20019;-71
2023/04/24 10:48:58;;;;;;;0.10;0.10;;;17.00;97.80;;;;;;5093173;28;20048;-73
2023/04/24 10:51:25;;;;;;;0.10;0.10;;;17.10;97.50;;;;;;5093710;28;20008;-73
2023/04/24 10:53:51;;;;;;;0.10;0.10;;;17.10;97.90;;;;;;5094096;28;20016;-73
2023/04/24 10:56:18;;;;;;;0.10;0.10;;;17.10;96.10;;;;;;5094207;28;20730;-73
2023/04/24 10:58:52;;;;;;;0.10;0.10;;;17.20;96.10;;;;;;5092585;28;20650;-71
2023/04/24 11:01:28;;;;;;;0.10;0.10;;;17.20;95.90;;;;;;5080158;28;20051;-70
2023/04/24 11:03:56;;;;;;;0.10;0.10;;;17.20;95.60;;;;;;5080271;28;20520;-71
2023/04/24 11:06:36;;;;;;;0.13;0.13;;;17.30;96.20;;;;;;5080030;28;20646;-72
2023/04/24 11:09:16;;;;;;;0.10;0.10;;;17.30;96.20;;;;;;5079745;28;20043;-72
2023/04/24 11:11:45;;;;;;;2.63;1.75;;;17.20;96.80;;;;;;5078793;28;20018;-79
2023/04/24 11:14:15;;;;;;;0.10;0.10;;;17.00;96.80;;;;;;5079922;28;20099;-73
2023/04/24 11:16:54;;;;;;;0.10;0.10;;;17.00;97.80;;;;;;5080242;28;20078;-74
2023/04/24 11:19:24;;;;;;;0.10;0.10;;;17.10;97.30;;;;;;5080061;28;20117;-72
2023/04/24 11:22:04;;;;;;;0.13;0.13;;;17.00;96.90;;;;;;5079858;28;20716;-77
2023/04/24 11:24:39;;;;;;;0.10;0.10;;;16.90;98.40;;;;;;5078170;28;20104;-72
2023/04/24 11:27:11;;;;;;;0.28;0.28;;;17.70;98.10;;;;;;5079725;28;20016;-78
2023/04/24 11:29:40;;;;;;;0.10;0.10;;;17.00;97.90;;;;;;5080129;28;20039;-69
2023/04/24 11:32:18;;;;;;;0.82;0.63;;;17.10;98.10;;;;;;5079781;28;20662;-72
2023/04/24 11:34:47;;;;;;;0.10;0.10;;;19.10;97.70;;;;;;5080126;28;20057;-72
2023/04/24 11:37:13;;;;;;;0.10;0.10;;;17.10;97.50;;;;;;5080937;28;20020;-72
2023/04/24 11:39:40;;;;;;;6.22;2.72;;;17.00;97.90;;;;;;5079850;28;20111;-72
2023/04/24 11:42:08;;;;;;;0.10;0.10;;;17.00;98.40;;;;;;5081070;28;20020;-73
2023/04/24 11:44:37;;;;;;;0.68;0.68;;;16.80;98.30;;;;;;5079230;28;20028;-72
2023/04/24 11:47:04;;;;;;;0.73;0.73;;;16.80;98.90;;;;;;5079862;28;20043;-81
2023/04/24 11:49:30;;;;;;;0.10;0.10;;;14.90;99.70;;;;;;5079500;28;20040;-73
2023/04/24 11:51:56;;;;;;;0.10;0.10;;;16.50;99.90;;;;;;5079651;28;20533;-74
2023/04/24 11:54:22;;;;;;;0.10;0.10;;;16.50;99.90;;;;;;5079964;28;20077;-76
2023/04/24 11:56:49;;;;;;;0.10;0.10;;;16.60;99.20;;;;;;5077756;28;20670;-69
2023/04/24 11:59:14;;;;;;;0.63;0.63;;;16.60;99.40;;;;;;5077485;28;20119;-73
2023/04/24 12:01:46;;;;;;;0.15;0.15;;;16.60;98.90;;;;;;5079396;28;20091;-70
2023/04/24 12:04:12;;;;;;;0.10;0.10;;;16.60;98.90;;;;;;5078942;28;20016;-70
2023/04/24 12:06:38;;;;;;;0.10;0.10;;;16.60;99.10;;;;;;5079130;28;20027;-75
2023/04/24 12:09:04;;;;;;;5.47;2.30;;;16.60;99.20;;;;;;5078824;28;20104;-76
2023/04/24 12:11:30;;;;;;;0.10;0.10;;;16.70;99.40;;;;;;5077928;28;20039;-74
2023/04/24 12:13:56;;;;;;;0.10;0.10;;;16.70;99.40;;;;;;5077416;28;20573;-74
2023/04/24 12:16:22;;;;;;;0.10;0.10;;;16.50;98.90;;;;;;5078867;28;20027;-74
2023/04/24 12:18:51;;;;;;;0.10;0.10;;;16.40;99.60;;;;;;5078686;28;20025;-73
2023/04/24 12:21:26;;;;;;;0.10;0.10;;;16.30;99.90;;;;;;5078515;28;20016;-78
2023/04/24 12:23:55;;;;;;;0.10;0.10;;;17.80;99.90;;;;;;5078593;28;20632;-78
2023/04/24 12:26:22;;;;;;;0.10;0.10;;;16.10;99.90;;;;;;5077501;28;20027;-73
2023/04/24 12:28:49;;;;;;;0.10;0.10;;;16.00;99.90;;;;;;5077205;28;20044;-81
2023/04/24 12:31:16;;;;;;;0.10;0.10;;;15.80;99.90;;;;;;5078627;28;20027;-74
2023/04/24 12:33:45;;;;;;;0.10;0.10;;;15.80;99.90;;;;;;5078640;28;20157;-73
2023/04/24 12:36:15;;;;;;;0.10;0.10;;;15.80;99.90;;;;;;5078611;28;20024;-78
2023/04/24 12:38:46;;;;;;;0.30;0.30;;;15.90;99.90;;;;;;5077626;28;20414;-73
2023/04/24 12:41:13;;;;;;;0.10;0.10;;;15.80;99.90;;;;;;5078321;28;20043;-78
2023/04/24 12:43:51;;;;;;;0.10;0.10;;;15.90;99.90;;;;;;5078520;28;20088;-73
2023/04/24 12:46:16;;;;;;;0.10;0.10;;;16.00;99.90;;;;;;5078001;28;20141;-73